Terminal Aerodrome Forecast
Issued by NWS

Home | Current Version | Previous Version | Text Only | Print | Product List | Glossary On
Versions: 1 2 3 4 5 6 7 8 9 10 11 12 13 14 15 16 17
000
FTUS43 KDVN 211700
TAFBRL
TAF
KBRL 211730Z 2118/2218 26010KT 6SM -RA BR VCTS BKN040CB OVC070
      TEMPO 2120/2123 4SM -TSRA BKN025CB
     FM212300 29008KT 6SM -RA BR VCTS BKN025CB OVC040
     FM220200 33011KT P6SM SCT040 BKN070
     FM220400 35008KT P6SM FEW070=

USA.gov is the U.S. government's official web portal to all federal, state and local government web resources and services.